Aeroporto :
LOGIN :

Iscrizione | Disclaimer

   EN    FR    IT 

 










Sommario :    VFR   VFR Marginale   IFR   IFR Intensivo   IFR Molto Intensivo
Visibilità : 
Base nubi : 
>= 8 km
>= 3000ft
5 / 8 km
1000 / 3000 ft
1500m / 5 km
500 / 1000 ft
800 / 1500m
200 / 500 ft
< 800m
< 200 ft
Simboli :   Temporali  Nebbia  Neve Forte  Precipitazioni Forti  Vento > 20 kt
SIGMETs :   Varie  Temporali  Ghiacco  Turbolenza  Onda orograficha  Ceneri Vulcaniche






- Altitudine del aeroporto : 220 ft
- Codice IATA : CWL


EGFF - Cardiff Rhoose

ULTIMO METAR :
  • 202050Z AUTO 28012KT 9999 SCT031 06/02 Q1020

METARs OBSOLETI :
  • 202020Z AUTO 28011KT 9999 BKN034 BKN041 06/01 Q1020
  • 201950Z AUTO 28012KT 9999 SCT034 06/01 Q1019
  • 201920Z AUTO 28011KT 9999 SCT030 06/01 Q1019
  • 201850Z AUTO 29017KT 9999 SCT030 06/01 Q1018
  • 201820Z 29017KT 9999 FEW031 06/00 Q1018

TAF TAF EGFF
Valido dal 20 a 18 ore il 21 a 18 ore UTC


201656Z 2018/2118 28018G30KT CAVOK
BECMG 2018/2021 28010KT
BECMG 2103/2106 21012KT
BECMG 2106/2109 24020G33KT BKN025
ATIS : +44 1446 729 319



MetMap, La meteo Aeronautica in un colpo d'occhio ! - Copyright ORBIFLY Dicembre 2007 - Disclaimer

ORBIFLY MET'MAP TEAM :

Programmazione e sviluppo : Alexandra Zaïnal
Concezione : Baudouin d'Aumeries
Aiuto per la programmazione : Marc-Olivier Méhu
Supporto tecnico e logistico : Manuel Goepfert
Aiuto per la traduzione : Arnaldo La Scala

Contatto : metmap@orbifly.com




FONTI E CREDITI :

   NOAA